Time;durP1;ratioP1;P1;durP2;ratioP2;P2;SDS_P1;SDS_P2;PMS_P1;PMS_P2;Temp;Humidity;BMP_temperature;BMP_pressure;BME280_temperature;BME280_humidity;BME280_pressure;Samples;Min_cycle;Max_cycle;Signal;HPM_P1;HPM_P2
2023/06/13 00:00:34;;;;;;;;;;;19.00;62.70;;;;;;5133928;27;19923;-45
2023/06/13 00:03:00;;;;;;;;;;;19.00;63.00;;;;;;5133212;27;19990;-45
2023/06/13 00:05:25;;;;;;;;;;;18.90;63.00;;;;;;5133809;27;19907;-43
2023/06/13 00:07:51;;;;;;;;;;;18.90;62.70;;;;;;5133280;27;19911;-48
2023/06/13 00:10:16;;;;;;;;;;;18.90;63.00;;;;;;5132441;27;20370;-44
2023/06/13 00:12:44;;;;;;;;;;;18.90;63.10;;;;;;5133786;27;20290;-44
2023/06/13 00:15:11;;;;;;;;;;;18.90;63.80;;;;;;5133966;27;20060;-44
2023/06/13 00:17:38;;;;;;;;;;;18.80;64.10;;;;;;5132864;27;20386;-43
2023/06/13 00:20:08;;;;;;;;;;;18.80;64.50;;;;;;5133753;27;19916;-45
2023/06/13 00:22:34;;;;;;;;;;;18.80;64.80;;;;;;5132935;28;19907;-51
2023/06/13 00:24:59;;;;;;;;;;;18.70;64.70;;;;;;5126771;28;19912;-44
2023/06/13 00:27:25;;;;;;;;;;;18.70;64.80;;;;;;5133457;28;19907;-48
2023/06/13 00:29:50;;;;;;;;;;;18.70;65.00;;;;;;5132899;28;19914;-45
2023/06/13 00:32:17;;;;;;;;;;;18.70;64.60;;;;;;5133688;28;20334;-44
2023/06/13 00:34:43;;;;;;;;;;;18.50;64.50;;;;;;5121601;28;19912;-44
2023/06/13 00:37:13;;;;;;;;;;;18.50;64.30;;;;;;5132674;28;19920;-45
2023/06/13 00:39:38;;;;;;;;;;;18.50;65.20;;;;;;5133587;28;20026;-45
2023/06/13 00:42:04;;;;;;;;;;;18.40;64.30;;;;;;5133479;28;19993;-45
2023/06/13 00:44:30;;;;;;;;;;;18.40;64.80;;;;;;5132585;28;19912;-44
2023/06/13 00:46:56;;;;;;;;;;;18.30;65.40;;;;;;5133669;28;19907;-44
2023/06/13 00:49:21;;;;;;;;;;;18.30;64.60;;;;;;5133420;28;20326;-45
2023/06/13 00:51:47;;;;;;;;;;;18.20;65.80;;;;;;5132842;28;19932;-43
2023/06/13 00:54:16;;;;;;;;;;;18.20;65.80;;;;;;5133175;28;19939;-44
2023/06/13 00:56:44;;;;;;;;;;;18.20;65.70;;;;;;5133259;28;19955;-43
2023/06/13 00:59:12;;;;;;;;;;;18.10;65.90;;;;;;5132580;28;19908;-43
2023/06/13 01:01:40;;;;;;;;;;;18.10;66.50;;;;;;5133351;28;20358;-46
2023/06/13 01:04:07;;;;;;;;;;;18.00;66.10;;;;;;5133238;28;19908;-46
2023/06/13 01:06:33;;;;;;;;;;;18.00;66.30;;;;;;5132879;28;19977;-45
2023/06/13 01:09:02;;;;;;;;;;;18.00;66.50;;;;;;5133242;28;19912;-48
2023/06/13 01:11:44;;;;;;;;;;;17.90;66.80;;;;;;5133283;28;19986;-44
2023/06/13 01:14:16;;;;;;;;;;;17.90;67.50;;;;;;5132481;28;19911;-44
2023/06/13 01:16:45;;;;;;;;;;;17.90;67.60;;;;;;5133506;28;19908;-43
2023/06/13 01:19:23;;;;;;;;;;;17.80;67.20;;;;;;5132436;28;19914;-43
2023/06/13 01:21:50;;;;;;;;;;;17.80;67.40;;;;;;5135540;27;19907;-45
2023/06/13 01:24:23;;;;;;;;;;;17.80;67.50;;;;;;5136844;27;20010;-44
2023/06/13 01:26:54;;;;;;;;;;;17.70;67.30;;;;;;5136377;27;19912;-44
2023/06/13 01:29:20;;;;;;;;;;;17.70;67.50;;;;;;5136783;27;20392;-44
2023/06/13 01:31:48;;;;;;;;;;;17.70;68.30;;;;;;5136914;27;19915;-44
2023/06/13 01:34:14;;;;;;;;;;;17.60;68.20;;;;;;5135706;27;19912;-44
2023/06/13 01:36:40;;;;;;;;;;;17.60;68.40;;;;;;5136563;27;19919;-44
2023/06/13 01:39:05;;;;;;;;;;;17.60;69.10;;;;;;5136694;27;20311;-45
2023/06/13 01:41:31;;;;;;;;;;;17.60;69.40;;;;;;5135963;27;19908;-43
2023/06/13 01:43:56;;;;;;;;;;;17.50;69.10;;;;;;5136388;27;19950;-44
2023/06/13 01:46:24;;;;;;;;;;;17.50;69.90;;;;;;5136525;27;19913;-44
2023/06/13 01:49:10;;;;;;;;;;;17.40;70.40;;;;;;5135866;27;19950;-44
2023/06/13 01:51:44;;;;;;;;;;;17.40;70.70;;;;;;5083945;27;20461;-45
2023/06/13 01:54:11;;;;;;;;;;;17.30;71.30;;;;;;5135288;27;19918;-45
2023/06/13 01:56:37;;;;;;;;;;;17.30;71.70;;;;;;5136503;27;19908;-44
2023/06/13 01:59:04;;;;;;;;;;;17.20;71.90;;;;;;5136091;27;20285;-44
2023/06/13 02:01:34;;;;;;;;;;;17.20;70.90;;;;;;5135629;27;19908;-46
2023/06/13 02:04:03;;;;;;;;;;;17.10;71.00;;;;;;5135925;27;20005;-45
2023/06/13 02:06:29;;;;;;;;;;;17.00;71.00;;;;;;5136153;27;20400;-48
2023/06/13 02:08:55;;;;;;;;;;;17.00;70.90;;;;;;5135513;27;19912;-44
2023/06/13 02:11:21;;;;;;;;;;;17.00;71.20;;;;;;5136086;27;19915;-47
2023/06/13 02:13:48;;;;;;;;;;;17.00;71.50;;;;;;5135972;27;19907;-44
2023/06/13 02:16:14;;;;;;;;;;;16.90;71.40;;;;;;5132809;27;20282;-44
2023/06/13 02:18:39;;;;;;;;;;;16.90;71.80;;;;;;5129442;27;19919;-44
2023/06/13 02:21:05;;;;;;;;;;;16.90;71.60;;;;;;5135950;27;19915;-43
2023/06/13 02:23:31;;;;;;;;;;;16.90;71.60;;;;;;5107983;27;20400;-44
2023/06/13 02:25:57;;;;;;;;;;;16.80;72.00;;;;;;5135942;27;20052;-44
2023/06/13 02:28:22;;;;;;;;;;;16.80;72.00;;;;;;5135819;27;19955;-47
2023/06/13 02:30:48;;;;;;;;;;;16.80;72.20;;;;;;5135185;27;20262;-46
2023/06/13 02:33:14;;;;;;;;;;;16.80;72.40;;;;;;5134441;27;20053;-43
2023/06/13 02:35:39;;;;;;;;;;;16.70;72.40;;;;;;5135274;27;19950;-44
2023/06/13 02:38:06;;;;;;;;;;;16.70;72.40;;;;;;5134664;27;20312;-48
2023/06/13 02:40:32;;;;;;;;;;;16.70;72.70;;;;;;5135341;27;20271;-45
2023/06/13 02:42:57;;;;;;;;;;;16.60;72.90;;;;;;5135396;27;19956;-44
2023/06/13 02:45:23;;;;;;;;;;;16.60;73.20;;;;;;5134760;27;20359;-47
2023/06/13 02:47:48;;;;;;;;;;;16.50;73.90;;;;;;5135447;27;19950;-46
2023/06/13 02:50:14;;;;;;;;;;;16.50;74.10;;;;;;5134939;27;19907;-48
2023/06/13 02:52:39;;;;;;;;;;;16.50;74.40;;;;;;5135123;27;20348;-44
2023/06/13 02:55:08;;;;;;;;;;;16.50;74.30;;;;;;5135219;27;20385;-43
2023/06/13 02:57:34;;;;;;;;;;;16.50;74.50;;;;;;5134532;27;19914;-43
2023/06/13 03:00:00;;;;;;;;;;;16.40;74.50;;;;;;5135255;27;19923;-47
2023/06/13 03:02:26;;;;;;;;;;;16.40;74.30;;;;;;5134841;27;20393;-44
2023/06/13 03:04:51;;;;;;;;;;;16.30;74.70;;;;;;5116098;27;19922;-44
2023/06/13 03:07:20;;;;;;;;;;;16.30;74.90;;;;;;5135024;27;19908;-47
2023/06/13 03:09:45;;;;;;;;;;;16.30;75.10;;;;;;5135032;27;19994;-45
2023/06/13 03:12:11;;;;;;;;;;;16.30;75.70;;;;;;5115509;27;19943;-46
2023/06/13 03:14:38;;;;;;;;;;;16.30;75.50;;;;;;5135025;27;20385;-44
2023/06/13 03:17:04;;;;;;;;;;;16.30;76.20;;;;;;5134904;27;19907;-44
2023/06/13 03:19:29;;;;;;;;;;;16.20;76.00;;;;;;5133993;27;19923;-46
2023/06/13 03:21:55;;;;;;;;;;;16.20;76.90;;;;;;5114200;28;20251;-43
2023/06/13 03:24:21;;;;;;;;;;;16.20;77.50;;;;;;5114065;28;19915;-45
2023/06/13 03:26:46;;;;;;;;;;;16.20;78.00;;;;;;5113536;28;19911;-45
2023/06/13 03:29:12;;;;;;;;;;;16.20;78.20;;;;;;5114054;28;19914;-46
2023/06/13 03:31:38;;;;;;;;;;;16.20;78.30;;;;;;5131603;27;19911;-45
2023/06/13 03:34:04;;;;;;;;;;;16.20;78.60;;;;;;5133984;27;19911;-44
2023/06/13 03:36:33;;;;;;;;;;;16.20;78.70;;;;;;5134175;27;19947;-44
2023/06/13 03:38:58;;;;;;;;;;;16.20;79.00;;;;;;5133790;27;19922;-44
2023/06/13 03:41:25;;;;;;;;;;;16.20;79.00;;;;;;5133794;27;19907;-45
2023/06/13 03:43:51;;;;;;;;;;;16.20;79.30;;;;;;5134145;27;20355;-45
2023/06/13 03:46:16;;;;;;;;;;;16.20;79.20;;;;;;5134628;27;19919;-44
2023/06/13 03:48:42;;;;;;;;;;;16.20;79.40;;;;;;5133437;27;19963;-44
2023/06/13 03:51:07;;;;;;;;;;;16.20;79.40;;;;;;5134287;27;19907;-46
2023/06/13 03:53:32;;;;;;;;;;;16.20;79.40;;;;;;5133624;27;19947;-43
2023/06/13 03:55:58;;;;;;;;;;;16.20;79.00;;;;;;5134295;27;19908;-44
2023/06/13 03:58:25;;;;;;;;;;;16.20;79.30;;;;;;5133727;27;19915;-44
2023/06/13 04:00:50;;;;;;;;;;;16.20;79.40;;;;;;5133754;27;20014;-44
2023/06/13 04:03:16;;;;;;;;;;;16.20;79.30;;;;;;5133927;27;19998;-44
2023/06/13 04:05:42;;;;;;;;;;;16.20;79.60;;;;;;5134084;27;20377;-45
2023/06/13 04:08:07;;;;;;;;;;;16.20;79.80;;;;;;5133197;27;20277;-46
2023/06/13 04:10:33;;;;;;;;;;;16.20;80.20;;;;;;5133508;27;19912;-45
2023/06/13 04:12:58;;;;;;;;;;;16.20;80.50;;;;;;5134043;27;19912;-44
2023/06/13 04:15:24;;;;;;;;;;;16.30;80.60;;;;;;5133313;27;19908;-46
2023/06/13 04:17:52;;;;;;;;;;;16.30;81.00;;;;;;5133915;27;19911;-46
2023/06/13 04:20:19;;;;;;;;;;;16.30;81.10;;;;;;5133454;27;19919;-45
2023/06/13 04:22:45;;;;;;;;;;;16.30;81.60;;;;;;5133216;28;19915;-44
2023/06/13 04:25:10;;;;;;;;;;;16.30;80.70;;;;;;5133960;28;20354;-45
2023/06/13 04:27:36;;;;;;;;;;;16.30;81.90;;;;;;5133866;28;19908;-45
2023/06/13 04:30:02;;;;;;;;;;;16.40;81.70;;;;;;5132945;28;19911;-43
2023/06/13 04:32:28;;;;;;;;;;;16.40;81.60;;;;;;5133657;28;19990;-43
2023/06/13 04:34:55;;;;;;;;;;;16.40;81.80;;;;;;5133781;28;19984;-46
2023/06/13 04:37:25;;;;;;;;;;;16.40;81.60;;;;;;5132523;28;20418;-44
2023/06/13 04:39:51;;;;;;;;;;;16.40;81.40;;;;;;5133110;28;20343;-45
2023/06/13 04:42:24;;;;;;;;;;;16.50;81.10;;;;;;5133567;28;20275;-45
2023/06/13 04:44:53;;;;;;;;;;;16.50;81.80;;;;;;5132793;28;20350;-45
2023/06/13 04:47:19;;;;;;;;;;;16.50;81.20;;;;;;5133172;28;20374;-45
2023/06/13 04:49:45;;;;;;;;;;;16.60;81.20;;;;;;5133414;28;20388;-44
2023/06/13 04:52:14;;;;;;;;;;;16.60;81.10;;;;;;5132818;28;19911;-44
2023/06/13 04:54:39;;;;;;;;;;;16.60;80.80;;;;;;5133388;28;19911;-47
2023/06/13 04:57:05;;;;;;;;;;;16.70;81.20;;;;;;5134628;27;19958;-49
2023/06/13 04:59:31;;;;;;;;;;;16.70;80.80;;;;;;5137338;27;19919;-44
2023/06/13 05:01:56;;;;;;;;;;;16.70;82.10;;;;;;5136966;27;19941;-44
2023/06/13 05:04:22;;;;;;;;;;;16.70;82.20;;;;;;5136612;27;20369;-44
2023/06/13 05:06:47;;;;;;;;;;;16.80;83.40;;;;;;5137096;27;20315;-45
2023/06/13 05:09:14;;;;;;;;;;;16.80;82.10;;;;;;5129169;27;19912;-48
2023/06/13 05:11:40;;;;;;;;;;;16.80;83.10;;;;;;5125026;27;19908;-43
2023/06/13 05:14:06;;;;;;;;;;;16.80;82.70;;;;;;5127115;27;19912;-43
2023/06/13 05:16:31;;;;;;;;;;;16.90;83.60;;;;;;5128315;27;19916;-45
2023/06/13 05:18:57;;;;;;;;;;;16.90;84.40;;;;;;5121733;27;20373;-48
2023/06/13 05:21:23;;;;;;;;;;;16.90;83.40;;;;;;5131057;27;20002;-44
2023/06/13 05:23:48;;;;;;;;;;;17.00;83.20;;;;;;5114364;27;19912;-44
2023/06/13 05:26:14;;;;;;;;;;;17.00;83.30;;;;;;5122269;27;20404;-46
2023/06/13 05:28:39;;;;;;;;;;;17.00;83.30;;;;;;5116808;27;19919;-44
2023/06/13 05:31:05;;;;;;;;;;;17.00;83.50;;;;;;5126968;27;20386;-45
2023/06/13 05:33:31;;;;;;;;;;;17.10;83.10;;;;;;5136084;27;19915;-45
2023/06/13 05:35:56;;;;;;;;;;;17.20;82.70;;;;;;5134304;27;19958;-46
2023/06/13 05:38:21;;;;;;;;;;;17.20;82.40;;;;;;5136559;27;19911;-46
2023/06/13 05:40:47;;;;;;;;;;;17.20;82.60;;;;;;5134847;27;20278;-47
2023/06/13 05:43:13;;;;;;;;;;;17.30;81.50;;;;;;5122565;27;20007;-46
2023/06/13 05:45:38;;;;;;;;;;;17.30;81.60;;;;;;5136211;27;20366;-43
2023/06/13 05:48:04;;;;;;;;;;;17.30;81.90;;;;;;5115552;27;19908;-46
2023/06/13 05:50:29;;;;;;;;;;;17.40;81.50;;;;;;5119650;27;20368;-46
2023/06/13 05:52:55;;;;;;;;;;;17.40;80.80;;;;;;5136640;27;20006;-46
2023/06/13 05:55:20;;;;;;;;;;;17.50;81.00;;;;;;5135778;27;20346;-44
2023/06/13 05:57:46;;;;;;;;;;;17.50;81.30;;;;;;5136464;27;19907;-45
2023/06/13 06:00:13;;;;;;;;;;;17.60;80.10;;;;;;5135107;27;19915;-45
2023/06/13 06:02:39;;;;;;;;;;;17.60;79.90;;;;;;5136245;27;19919;-45
2023/06/13 06:05:05;;;;;;;;;;;17.70;80.30;;;;;;5136226;27;20258;-47
2023/06/13 06:07:31;;;;;;;;;;;17.70;80.00;;;;;;5134993;27;19911;-45
2023/06/13 06:09:57;;;;;;;;;;;17.80;79.80;;;;;;5136024;27;20373;-45
2023/06/13 06:12:22;;;;;;;;;;;17.80;78.60;;;;;;5135911;27;19914;-44
2023/06/13 06:14:48;;;;;;;;;;;17.80;78.20;;;;;;5135385;27;20378;-44
2023/06/13 06:17:13;;;;;;;;;;;17.90;78.40;;;;;;5135093;27;19907;-45
2023/06/13 06:19:38;;;;;;;;;;;18.00;77.30;;;;;;5135778;27;20082;-46
2023/06/13 06:22:04;;;;;;;;;;;18.00;77.60;;;;;;5135095;27;19916;-44
2023/06/13 06:24:30;;;;;;;;;;;18.00;77.90;;;;;;5135696;27;20002;-47
2023/06/13 06:26:55;;;;;;;;;;;18.10;77.20;;;;;;5130631;27;19915;-47
2023/06/13 06:29:20;;;;;;;;;;;18.10;76.80;;;;;;5134483;27;19912;-45
2023/06/13 06:31:46;;;;;;;;;;;18.20;76.80;;;;;;5133196;27;19950;-46
2023/06/13 06:34:11;;;;;;;;;;;18.30;76.80;;;;;;5131492;27;19915;-43
2023/06/13 06:36:37;;;;;;;;;;;18.30;76.10;;;;;;5134852;27;19919;-48
2023/06/13 06:39:02;;;;;;;;;;;18.30;75.30;;;;;;5127760;27;19911;-44
2023/06/13 06:41:28;;;;;;;;;;;18.40;74.50;;;;;;5114522;28;19920;-49
2023/06/13 06:43:53;;;;;;;;;;;18.50;74.50;;;;;;5114173;28;19915;-46
2023/06/13 06:46:19;;;;;;;;;;;18.50;75.20;;;;;;5119203;27;20370;-44
2023/06/13 06:48:44;;;;;;;;;;;18.60;74.70;;;;;;5135113;27;20207;-44
2023/06/13 06:51:10;;;;;;;;;;;18.60;73.90;;;;;;5134438;27;19912;-47
2023/06/13 06:53:35;;;;;;;;;;;18.70;73.30;;;;;;5135284;27;19914;-46
2023/06/13 06:56:00;;;;;;;;;;;18.80;73.10;;;;;;5135329;27;19907;-44
2023/06/13 06:58:26;;;;;;;;;;;18.80;73.50;;;;;;5134239;27;20255;-44
2023/06/13 07:00:51;;;;;;;;;;;18.90;72.80;;;;;;5134832;27;19926;-43
2023/06/13 07:03:17;;;;;;;;;;;19.00;72.20;;;;;;5134994;27;19911;-44
2023/06/13 07:05:42;;;;;;;;;;;19.00;70.80;;;;;;5134596;27;19907;-44
2023/06/13 07:08:08;;;;;;;;;;;19.10;71.60;;;;;;5135033;27;20273;-45
2023/06/13 07:10:33;;;;;;;;;;;19.20;72.10;;;;;;5133694;27;20010;-45
2023/06/13 07:12:59;;;;;;;;;;;19.30;72.40;;;;;;5135023;27;19912;-44
2023/06/13 07:15:25;;;;;;;;;;;19.40;71.10;;;;;;5134820;27;19908;-44
2023/06/13 07:17:51;;;;;;;;;;;19.40;70.50;;;;;;5134190;27;19964;-44
2023/06/13 07:20:17;;;;;;;;;;;19.50;70.20;;;;;;5134030;27;20026;-48
2023/06/13 07:22:43;;;;;;;;;;;19.60;69.80;;;;;;5134736;27;19958;-45
2023/06/13 07:25:08;;;;;;;;;;;19.70;70.00;;;;;;5134090;27;19948;-43
2023/06/13 07:27:34;;;;;;;;;;;19.80;70.80;;;;;;5134601;27;19954;-45
2023/06/13 07:29:59;;;;;;;;;;;19.90;71.80;;;;;;5134424;27;19912;-43
2023/06/13 07:32:26;;;;;;;;;;;19.90;70.90;;;;;;5133865;27;20453;-47
2023/06/13 07:34:51;;;;;;;;;;;20.10;71.70;;;;;;5134817;27;19956;-44
2023/06/13 07:37:17;;;;;;;;;;;20.10;70.70;;;;;;5134277;27;19920;-44
2023/06/13 07:39:42;;;;;;;;;;;20.20;70.90;;;;;;5133639;27;20330;-46
2023/06/13 07:42:08;;;;;;;;;;;20.30;70.90;;;;;;5134500;27;19907;-46
2023/06/13 07:44:33;;;;;;;;;;;20.40;70.20;;;;;;5134246;27;19907;-44
2023/06/13 07:46:59;;;;;;;;;;;20.50;70.50;;;;;;5133601;27;19911;-45
2023/06/13 07:49:24;;;;;;;;;;;20.60;70.50;;;;;;5134071;27;20058;-45
2023/06/13 07:51:50;;;;;;;;;;;20.70;70.10;;;;;;5134350;27;19919;-45
2023/06/13 07:54:15;;;;;;;;;;;20.90;70.90;;;;;;5133547;27;19994;-45
2023/06/13 07:56:41;;;;;;;;;;;20.90;71.40;;;;;;5133884;27;20002;-49
2023/06/13 07:59:06;;;;;;;;;;;21.00;71.30;;;;;;5134492;27;20362;-44
2023/06/13 08:01:32;;;;;;;;;;;21.10;69.60;;;;;;5133290;27;19997;-44
2023/06/13 08:03:57;;;;;;;;;;;21.10;69.50;;;;;;5134246;27;19970;-42
2023/06/13 08:06:23;;;;;;;;;;;21.20;69.90;;;;;;5133983;27;19907;-44
2023/06/13 08:08:48;;;;;;;;;;;21.30;68.60;;;;;;5133015;27;19915;-44
2023/06/13 08:11:14;;;;;;;;;;;21.40;67.10;;;;;;5134167;27;20270;-45
2023/06/13 08:13:39;;;;;;;;;;;21.50;67.10;;;;;;5133893;27;19914;-46
2023/06/13 08:16:05;;;;;;;;;;;21.60;65.80;;;;;;5133262;27;19998;-45
2023/06/13 08:18:30;;;;;;;;;;;21.70;65.60;;;;;;5133586;27;19916;-45
2023/06/13 08:20:55;;;;;;;;;;;21.80;64.90;;;;;;5133031;27;20010;-45
2023/06/13 08:23:21;;;;;;;;;;;21.90;66.10;;;;;;5133795;27;19908;-46
2023/06/13 08:25:46;;;;;;;;;;;22.00;65.10;;;;;;5133979;28;20308;-45
2023/06/13 08:28:13;;;;;;;;;;;22.10;65.90;;;;;;5132839;28;19915;-45
2023/06/13 08:30:38;;;;;;;;;;;22.20;65.40;;;;;;5133821;27;20006;-44
2023/06/13 08:33:04;;;;;;;;;;;22.30;65.70;;;;;;5138103;27;19947;-45
2023/06/13 08:35:30;;;;;;;;;;;22.30;65.60;;;;;;5136911;27;20373;-44
2023/06/13 08:37:55;;;;;;;;;;;22.50;65.60;;;;;;5137701;27;19964;-44
2023/06/13 08:40:21;;;;;;;;;;;22.50;64.30;;;;;;5137789;27;19915;-44
2023/06/13 08:42:47;;;;;;;;;;;22.50;64.00;;;;;;5137193;27;19911;-45
2023/06/13 08:45:13;;;;;;;;;;;22.60;63.80;;;;;;5137648;27;19907;-45
2023/06/13 08:47:40;;;;;;;;;;;22.70;63.20;;;;;;5137536;27;19965;-44
2023/06/13 08:50:06;;;;;;;;;;;22.80;62.70;;;;;;5137186;27;19907;-48
2023/06/13 08:52:41;;;;;;;;;;;22.90;62.70;;;;;;5137535;27;19908;-44
2023/06/13 08:55:09;;;;;;;;;;;23.00;62.50;;;;;;5137684;27;19907;-44
2023/06/13 08:57:36;;;;;;;;;;;23.10;62.10;;;;;;5136498;27;20436;-45
2023/06/13 09:00:04;;;;;;;;;;;23.20;62.10;;;;;;5137433;27;19915;-44
2023/06/13 09:02:31;;;;;;;;;;;23.20;59.90;;;;;;5137654;27;19911;-43
2023/06/13 09:04:57;;;;;;;;;;;23.20;60.90;;;;;;5136703;27;19907;-49
2023/06/13 09:07:25;;;;;;;;;;;23.30;60.20;;;;;;5137032;27;19918;-45
2023/06/13 09:09:50;;;;;;;;;;;23.30;60.70;;;;;;5137364;27;20001;-45
2023/06/13 09:12:16;;;;;;;;;;;23.30;59.10;;;;;;5136449;27;20002;-45
2023/06/13 09:14:41;;;;;;;;;;;23.40;59.00;;;;;;5137245;27;20019;-45
2023/06/13 09:17:08;;;;;;;;;;;23.50;58.80;;;;;;5136350;27;19912;-48
2023/06/13 09:19:33;;;;;;;;;;;23.60;57.80;;;;;;5136908;27;20381;-45
2023/06/13 09:21:59;;;;;;;;;;;23.70;58.30;;;;;;5137086;27;19965;-45
2023/06/13 09:24:25;;;;;;;;;;;23.90;58.70;;;;;;5136405;27;20412;-45
2023/06/13 09:26:51;;;;;;;;;;;24.00;59.90;;;;;;5136596;27;19923;-45
2023/06/13 09:29:17;;;;;;;;;;;24.10;58.60;;;;;;5136954;27;19912;-45
2023/06/13 09:31:42;;;;;;;;;;;24.10;56.90;;;;;;5136105;27;19914;-45
2023/06/13 09:34:07;;;;;;;;;;;24.20;58.10;;;;;;5136687;27;20285;-47
2023/06/13 09:36:37;;;;;;;;;;;24.30;58.30;;;;;;5117990;27;19925;-44
2023/06/13 09:39:06;;;;;;;;;;;24.40;56.40;;;;;;5136082;27;20006;-46
2023/06/13 09:41:31;;;;;;;;;;;24.50;56.10;;;;;;5136022;27;19926;-48
2023/06/13 09:44:01;;;;;;;;;;;24.50;56.40;;;;;;5136551;27;19908;-45
2023/06/13 09:46:27;;;;;;;;;;;24.60;56.90;;;;;;5131589;27;20002;-46
2023/06/13 09:48:53;;;;;;;;;;;24.70;58.00;;;;;;5136658;27;19968;-45
2023/06/13 09:51:20;;;;;;;;;;;24.80;56.70;;;;;;5136533;27;19911;-44
2023/06/13 09:53:47;;;;;;;;;;;24.80;56.10;;;;;;5135687;27;19907;-48
2023/06/13 09:56:12;;;;;;;;;;;24.80;56.40;;;;;;5135744;27;19911;-46
2023/06/13 09:58:38;;;;;;;;;;;25.00;55.50;;;;;;5136348;27;20341;-45
2023/06/13 10:01:03;;;;;;;;;;;25.00;55.60;;;;;;5135425;27;19916;-47
2023/06/13 10:03:29;;;;;;;;;;;25.00;55.20;;;;;;5136204;27;20047;-44
2023/06/13 10:05:57;;;;;;;;;;;25.00;56.10;;;;;;5136229;27;19938;-45
2023/06/13 10:08:23;;;;;;;;;;;25.10;55.90;;;;;;5135418;27;19908;-46
2023/06/13 10:10:48;;;;;;;;;;;25.20;55.30;;;;;;5136110;27;19930;-45
2023/06/13 10:13:18;;;;;;;;;;;25.20;55.20;;;;;;5135854;27;19912;-46
2023/06/13 10:15:47;;;;;;;;;;;25.30;56.20;;;;;;5135471;27;19953;-44
2023/06/13 10:18:14;;;;;;;;;;;25.50;56.00;;;;;;5135948;27;20036;-44
2023/06/13 10:20:40;;;;;;;;;;;25.50;54.00;;;;;;5135161;27;19920;-46
2023/06/13 10:23:10;;;;;;;;;;;25.50;54.20;;;;;;5135476;27;19956;-45
2023/06/13 10:25:36;;;;;;;;;;;25.50;54.20;;;;;;5135724;27;19907;-47
2023/06/13 10:28:10;;;;;;;;;;;25.60;51.80;;;;;;5135120;27;19912;-48
2023/06/13 10:30:55;;;;;;;;;;;25.60;53.00;;;;;;5135537;27;19953;-45
2023/06/13 10:33:42;;;;;;;;;;;25.70;54.70;;;;;;5135460;27;19911;-50
2023/06/13 10:36:11;;;;;;;;;;;25.80;54.70;;;;;;5134763;27;19919;-46
2023/06/13 10:38:59;;;;;;;;;;;25.90;55.30;;;;;;5135643;27;19914;-46
2023/06/13 10:41:43;;;;;;;;;;;26.10;55.50;;;;;;5135571;27;19923;-46
2023/06/13 10:44:10;;;;;;;;;;;26.20;54.90;;;;;;5135151;27;19912;-47
2023/06/13 10:46:36;;;;;;;;;;;26.30;54.50;;;;;;5135365;27;19994;-46
2023/06/13 10:49:02;;;;;;;;;;;26.40;53.80;;;;;;5134749;27;20003;-46
2023/06/13 10:51:30;;;;;;;;;;;26.50;53.60;;;;;;5135048;27;19943;-44
2023/06/13 10:53:57;;;;;;;;;;;26.50;54.70;;;;;;5134443;27;20315;-46
2023/06/13 10:56:27;;;;;;;;;;;26.60;54.90;;;;;;5134373;27;20369;-45
2023/06/13 10:58:58;;;;;;;;;;;26.60;53.20;;;;;;5135148;27;19932;-45
2023/06/13 11:01:23;;;;;;;;;;;26.60;54.70;;;;;;5134627;27;19919;-46
2023/06/13 11:03:49;;;;;;;;;;;26.70;55.10;;;;;;5128357;27;19915;-47
2023/06/13 11:06:15;;;;;;;;;;;26.80;53.70;;;;;;5122727;27;19986;-47
2023/06/13 11:08:40;;;;;;;;;;;26.90;54.60;;;;;;5127075;27;20320;-45
2023/06/13 11:11:06;;;;;;;;;;;26.80;52.20;;;;;;5128348;27;20281;-46
2023/06/13 11:13:32;;;;;;;;;;;26.80;52.30;;;;;;5131877;27;19915;-46
2023/06/13 11:16:15;;;;;;;;;;;26.80;52.20;;;;;;5125590;27;19912;-43
2023/06/13 11:18:47;;;;;;;;;;;26.80;52.00;;;;;;5115664;27;19918;-46
2023/06/13 11:21:13;;;;;;;;;;;26.80;51.70;;;;;;5134985;27;20410;-45
2023/06/13 11:23:44;;;;;;;;;;;26.70;51.40;;;;;;5129558;27;19916;-49
2023/06/13 11:26:10;;;;;;;;;;;26.70;53.10;;;;;;5116485;28;20432;-47
2023/06/13 11:28:36;;;;;;;;;;;26.80;53.10;;;;;;5132012;27;19937;-44
2023/06/13 11:31:03;;;;;;;;;;;26.90;54.00;;;;;;5132981;27;19912;-45
2023/06/13 11:33:30;;;;;;;;;;;27.00;52.70;;;;;;5133822;27;20358;-46
2023/06/13 11:35:57;;;;;;;;;;;27.10;51.90;;;;;;5134192;27;19926;-46
2023/06/13 11:38:26;;;;;;;;;;;27.10;51.90;;;;;;5146037;27;19998;-45
2023/06/13 11:40:56;;;;;;;;;;;27.00;51.40;;;;;;5133696;27;21393;-47
2023/06/13 11:43:23;;;;;;;;;;;27.00;51.30;;;;;;5122457;27;20434;-45
2023/06/13 11:45:49;;;;;;;;;;;27.00;51.90;;;;;;5096231;27;20281;-47
2023/06/13 11:48:22;;;;;;;;;;;27.30;52.50;;;;;;5124308;27;19920;-47
2023/06/13 11:50:48;;;;;;;;;;;27.40;52.00;;;;;;5126003;27;19912;-47
2023/06/13 11:53:13;;;;;;;;;;;27.60;52.30;;;;;;5129434;27;19936;-46
2023/06/13 11:55:39;;;;;;;;;;;27.70;49.90;;;;;;5133480;27;19914;-47
2023/06/13 11:58:05;;;;;;;;;;;27.70;49.10;;;;;;5132446;27;19908;-46
2023/06/13 12:00:49;;;;;;;;;;;27.70;51.20;;;;;;5133917;27;20432;-48
2023/06/13 12:03:15;;;;;;;;;;;27.70;49.10;;;;;;5134726;27;19907;-46
2023/06/13 12:05:41;;;;;;;;;;;27.70;50.60;;;;;;5134444;27;19921;-45
2023/06/13 12:08:06;;;;;;;;;;;27.80;52.40;;;;;;5134263;27;19991;-49
2023/06/13 12:10:32;;;;;;;;;;;27.80;51.30;;;;;;5134368;27;19916;-49
2023/06/13 12:12:57;;;;;;;;;;;27.80;50.90;;;;;;5134021;27;19915;-45
2023/06/13 12:15:27;;;;;;;;;;;27.80;51.30;;;;;;5134477;27;19908;-46
2023/06/13 12:18:02;;;;;;;;;;;27.90;50.90;;;;;;5134138;27;19911;-48
2023/06/13 12:20:35;;;;;;;;;;;27.90;51.20;;;;;;5133844;27;19916;-48
2023/06/13 12:23:01;;;;;;;;;;;28.00;50.60;;;;;;5134624;27;19957;-49
2023/06/13 12:25:28;;;;;;;;;;;28.00;49.40;;;;;;5134348;27;20375;-47
2023/06/13 12:27:58;;;;;;;;;;;28.00;49.10;;;;;;5133616;27;20354;-47
2023/06/13 12:30:24;;;;;;;;;;;28.10;48.80;;;;;;5134087;28;19908;-46
2023/06/13 12:32:56;;;;;;;;;;;28.10;50.30;;;;;;5133893;28;20014;-48
2023/06/13 12:35:23;;;;;;;;;;;28.20;51.80;;;;;;5124455;27;19911;-48
2023/06/13 12:37:58;;;;;;;;;;;28.30;51.40;;;;;;5125643;28;19920;-46
2023/06/13 12:40:30;;;;;;;;;;;28.50;50.90;;;;;;5133936;28;19919;-49
2023/06/13 12:42:56;;;;;;;;;;;28.80;51.60;;;;;;5131985;28;19957;-47
2023/06/13 12:45:22;;;;;;;;;;;29.00;50.40;;;;;;5130539;28;19915;-49
2023/06/13 12:47:47;;;;;;;;;;;29.20;51.30;;;;;;5133692;28;19911;-46
2023/06/13 12:50:13;;;;;;;;;;;29.40;50.10;;;;;;5124348;28;19914;-49
2023/06/13 12:52:39;;;;;;;;;;;29.50;48.80;;;;;;5132910;28;20403;-46
2023/06/13 12:55:04;;;;;;;;;;;29.70;49.10;;;;;;5134128;28;20002;-45
2023/06/13 12:57:31;;;;;;;;;;;29.90;49.10;;;;;;5132647;28;20282;-45
2023/06/13 12:59:57;;;;;;;;;;;30.10;50.20;;;;;;5132920;28;19995;-47
2023/06/13 13:02:24;;;;;;;;;;;30.20;48.70;;;;;;5132637;28;19915;-48
2023/06/13 13:04:57;;;;;;;;;;;30.40;49.80;;;;;;5133324;28;19911;-48
2023/06/13 13:07:23;;;;;;;;;;;30.60;50.20;;;;;;5133289;28;19907;-47
2023/06/13 13:09:48;;;;;;;;;;;30.80;49.50;;;;;;5132320;28;19953;-46
2023/06/13 13:12:15;;;;;;;;;;;30.90;49.70;;;;;;5133168;28;19912;-46
2023/06/13 13:14:40;;;;;;;;;;;30.90;48.80;;;;;;5133406;28;19908;-46
2023/06/13 13:17:06;;;;;;;;;;;31.00;50.10;;;;;;5133462;27;19911;-46
2023/06/13 13:19:31;;;;;;;;;;;31.00;48.40;;;;;;5136813;27;20263;-45
2023/06/13 13:21:58;;;;;;;;;;;31.10;50.20;;;;;;5136900;27;20010;-48
2023/06/13 13:24:23;;;;;;;;;;;31.10;49.50;;;;;;5135883;27;21997;-48
2023/06/13 13:26:51;;;;;;;;;;;31.20;48.90;;;;;;5136786;27;19912;-46
2023/06/13 13:29:17;;;;;;;;;;;31.30;48.10;;;;;;5136708;27;19973;-46
2023/06/13 13:31:43;;;;;;;;;;;31.50;48.00;;;;;;5136215;27;19912;-47
2023/06/13 13:34:09;;;;;;;;;;;31.50;48.60;;;;;;5136893;27;19911;-45
2023/06/13 13:36:35;;;;;;;;;;;31.70;48.80;;;;;;5136556;27;19919;-46
2023/06/13 13:39:02;;;;;;;;;;;31.80;48.30;;;;;;5135734;27;19911;-45
2023/06/13 13:41:32;;;;;;;;;;;31.80;47.80;;;;;;5136549;27;19915;-49
2023/06/13 13:43:58;;;;;;;;;;;31.80;47.90;;;;;;5136484;27;19912;-47
2023/06/13 13:46:23;;;;;;;;;;;31.90;47.50;;;;;;5135702;27;19907;-45
2023/06/13 13:48:49;;;;;;;;;;;32.00;48.40;;;;;;5136371;27;19912;-47
2023/06/13 13:51:14;;;;;;;;;;;32.20;47.90;;;;;;5136257;27;19912;-46
2023/06/13 13:53:40;;;;;;;;;;;32.30;47.60;;;;;;5135580;27;19914;-50
2023/06/13 13:56:05;;;;;;;;;;;32.30;46.30;;;;;;5136446;27;19915;-49
2023/06/13 13:58:31;;;;;;;;;;;32.20;47.10;;;;;;5135590;27;20587;-46
2023/06/13 14:00:57;;;;;;;;;;;32.40;47.30;;;;;;5135984;27;20405;-47
2023/06/13 14:03:22;;;;;;;;;;;32.30;46.50;;;;;;5136240;27;19908;-46
2023/06/13 14:05:48;;;;;;;;;;;32.40;46.90;;;;;;5135490;27;20010;-49
2023/06/13 14:08:13;;;;;;;;;;;32.50;46.30;;;;;;5136110;27;20362;-45
2023/06/13 14:10:39;;;;;;;;;;;32.70;46.40;;;;;;5136171;27;19967;-48
2023/06/13 14:13:05;;;;;;;;;;;32.80;46.20;;;;;;5135043;27;19911;-46